createdAt,value
2018-08-27T02:15:33.417Z,5.17
2018-08-27T02:17:35.457Z,2.10
2018-08-27T02:19:37.509Z,4.87
2018-08-27T02:21:39.542Z,3.17
2018-08-27T02:23:41.621Z,2.20
2018-08-27T02:25:44.000Z,4.63
2018-08-27T02:27:46.005Z,2.57
2018-08-27T02:29:48.037Z,4.20
2018-08-27T02:31:50.069Z,3.23
2018-08-27T02:33:52.090Z,2.90
2018-08-27T02:35:54.125Z,4.63
2018-08-27T02:37:56.162Z,2.73
2018-08-27T02:39:58.210Z,4.33
2018-08-27T02:42:00.265Z,4.70
2018-08-27T02:44:02.309Z,5.83
2018-08-27T02:46:04.348Z,4.50
2018-08-27T02:48:06.378Z,5.93
2018-08-27T02:50:08.417Z,3.70
2018-08-27T02:52:10.492Z,4.20
2018-08-27T02:54:12.549Z,3.80
2018-08-27T02:56:14.577Z,5.57
2018-08-27T02:58:16.674Z,5.53
2018-08-27T03:00:18.903Z,5.03
2018-08-27T03:02:20.982Z,3.10
2018-08-27T03:04:23.037Z,4.60
2018-08-27T03:06:25.077Z,4.30
2018-08-27T03:08:27.149Z,4.23
2018-08-27T03:10:29.181Z,2.53
2018-08-27T03:12:31.218Z,6.57
2018-08-27T03:14:33.277Z,4.83
2018-08-27T03:16:35.305Z,4.47
2018-08-27T03:18:37.359Z,3.60
2018-08-27T03:20:39.425Z,2.47
2018-08-27T03:22:41.510Z,2.70
2018-08-27T03:24:43.650Z,3.40
2018-08-27T03:26:45.696Z,6.50
2018-08-27T03:28:47.753Z,2.73
2018-08-27T03:30:49.795Z,2.50
2018-08-27T03:32:51.835Z,3.23
2018-08-27T03:34:53.879Z,3.40
2018-08-27T03:36:55.927Z,3.67
2018-08-27T03:38:57.981Z,2.80
2018-08-27T03:41:00.025Z,8.03
2018-08-27T03:43:02.079Z,2.57
2018-08-27T03:45:04.158Z,7.20
2018-08-27T03:47:06.201Z,4.73
2018-08-27T03:49:08.243Z,3.80
2018-08-27T03:51:10.277Z,2.93
2018-08-27T03:53:12.386Z,3.03
2018-08-27T03:55:14.449Z,2.77
2018-08-27T03:57:16.500Z,2.37
2018-08-27T03:59:18.660Z,2.70
2018-08-27T04:01:20.725Z,4.77
2018-08-27T04:03:22.813Z,6.57
2018-08-27T04:05:25.644Z,3.10
2018-08-27T04:07:27.593Z,4.63
2018-08-27T04:09:29.680Z,3.33
2018-08-27T04:11:31.737Z,8.33
2018-08-27T04:13:33.785Z,6.03
2018-08-27T04:15:35.837Z,4.40
2018-08-27T04:17:37.889Z,3.97
2018-08-27T04:19:40.008Z,6.07
2018-08-27T04:21:42.199Z,3.50
2018-08-27T04:23:44.263Z,4.53
2018-08-27T04:25:46.310Z,3.73
2018-08-27T04:27:48.413Z,4.03
2018-08-27T04:29:50.857Z,3.00
2018-08-27T04:31:52.976Z,4.73
2018-08-27T04:33:55.070Z,4.17
2018-08-27T04:35:57.176Z,3.47
2018-08-27T04:37:59.898Z,12.50
2018-08-27T04:40:01.957Z,4.90
2018-08-27T04:42:04.004Z,4.33
2018-08-27T04:44:06.072Z,3.40
2018-08-27T04:46:08.146Z,4.40
2018-08-27T04:48:10.206Z,3.60
2018-08-27T04:50:12.252Z,2.27
2018-08-27T04:52:14.321Z,2.67
2018-08-27T04:54:16.401Z,2.80
2018-08-27T04:56:18.465Z,5.37
2018-08-27T04:58:22.212Z,2.73
2018-08-27T05:00:30.833Z,1.97
2018-08-27T05:02:32.929Z,3.03
2018-08-27T05:04:34.997Z,2.70
2018-08-27T05:06:37.159Z,2.90
2018-08-27T05:08:39.208Z,3.90
2018-08-27T05:10:41.308Z,2.00
2018-08-27T05:12:43.363Z,2.27
2018-08-27T05:14:45.521Z,3.40
2018-08-27T05:16:47.575Z,3.57
2018-08-27T05:18:49.611Z,4.03
2018-08-27T05:20:51.653Z,4.73
2018-08-27T05:22:53.736Z,4.13
2018-08-27T05:24:55.788Z,3.53
2018-08-27T05:26:57.848Z,2.43
2018-08-27T05:28:59.908Z,3.20
2018-08-27T05:31:02.082Z,4.20
2018-08-27T05:33:04.061Z,2.27
2018-08-27T05:35:06.137Z,3.30
2018-08-27T05:37:08.166Z,5.27
2018-08-27T05:39:10.212Z,7.80
2018-08-27T05:41:12.256Z,2.33
2018-08-27T05:43:14.302Z,3.90
2018-08-27T05:45:16.353Z,2.47
2018-08-27T05:47:18.413Z,1.90
2018-08-27T05:49:20.497Z,2.50
2018-08-27T05:51:22.584Z,2.07
2018-08-27T05:53:24.622Z,2.50
2018-08-27T05:55:27.594Z,4.03
2018-08-27T05:57:29.640Z,3.23
2018-08-27T05:59:31.709Z,2.07
2018-08-27T06:01:33.827Z,4.43
2018-08-27T06:03:35.938Z,2.10
2018-08-27T06:05:37.982Z,3.47
2018-08-27T06:07:40.045Z,3.23
2018-08-27T06:09:42.145Z,7.53
2018-08-27T06:11:44.166Z,3.40
2018-08-27T06:13:46.313Z,4.10
2018-08-27T06:15:48.391Z,4.93
2018-08-27T06:17:50.413Z,5.60
2018-08-27T06:19:52.461Z,1.90
2018-08-27T06:21:54.559Z,4.93
2018-08-27T06:23:56.752Z,2.00
2018-08-27T06:25:58.801Z,4.83
2018-08-27T06:28:00.855Z,4.17
2018-08-27T06:30:03.381Z,3.47
2018-08-27T06:32:05.446Z,3.17
2018-08-27T06:34:07.498Z,4.13
2018-08-27T06:36:09.529Z,6.87
2018-08-27T06:38:11.549Z,3.40
2018-08-27T06:40:13.613Z,3.10
2018-08-27T06:42:15.680Z,3.03
2018-08-27T06:44:17.715Z,3.90
2018-08-27T06:46:19.790Z,2.37
2018-08-27T06:48:21.844Z,3.17
2018-08-27T06:50:23.913Z,3.73
2018-08-27T06:52:26.102Z,2.10
2018-08-27T06:54:28.138Z,3.53
2018-08-27T06:56:30.223Z,2.47
2018-08-27T06:58:32.283Z,3.77
2018-08-27T07:00:34.355Z,3.03
2018-08-27T07:02:36.422Z,5.80
2018-08-27T07:04:38.510Z,4.53
2018-08-27T07:06:40.552Z,2.37
2018-08-27T07:08:42.610Z,2.03
2018-08-27T07:10:44.658Z,2.00
2018-08-27T07:12:46.714Z,2.70
2018-08-27T07:14:48.736Z,5.27
2018-08-27T07:16:50.778Z,5.00
2018-08-27T07:18:52.811Z,2.63
2018-08-27T07:20:54.921Z,3.73
2018-08-27T07:22:57.029Z,6.70
2018-08-27T07:24:59.137Z,3.77
2018-08-27T07:27:01.349Z,7.87
2018-08-27T07:29:03.493Z,3.40
2018-08-27T07:31:05.561Z,2.90
2018-08-27T07:33:07.651Z,4.37
2018-08-27T07:35:09.682Z,2.80
2018-08-27T07:37:11.725Z,3.30
2018-08-27T07:39:13.777Z,3.30
2018-08-27T07:41:15.821Z,3.97
2018-08-27T07:43:17.898Z,3.00
2018-08-27T07:45:19.953Z,3.07
2018-08-27T07:47:21.985Z,7.93
2018-08-27T07:49:24.025Z,3.80
2018-08-27T07:51:26.193Z,3.07
2018-08-27T07:53:28.318Z,8.23
2018-08-27T07:55:30.407Z,3.30
2018-08-27T07:57:32.496Z,4.53
2018-08-27T07:59:34.533Z,5.40
2018-08-27T08:01:36.573Z,3.83
2018-08-27T08:03:38.611Z,8.50
2018-08-27T08:05:40.761Z,5.20
2018-08-27T08:07:43.429Z,6.03
2018-08-27T08:09:45.447Z,5.40
2018-08-27T08:11:47.502Z,4.60
2018-08-27T08:13:49.556Z,7.80
2018-08-27T08:15:51.688Z,4.33
2018-08-27T08:17:53.745Z,3.60
2018-08-27T08:19:55.801Z,6.60
2018-08-27T08:21:57.833Z,6.17
2018-08-27T08:23:59.960Z,4.03
2018-08-27T08:26:02.010Z,4.80
2018-08-27T08:28:04.082Z,8.00
2018-08-27T08:30:06.297Z,4.70
2018-08-27T08:32:08.328Z,4.73
2018-08-27T08:34:10.362Z,3.23
2018-08-27T08:36:12.750Z,3.63
2018-08-27T08:38:15.075Z,4.07
2018-08-27T08:40:17.338Z,2.37
2018-08-27T08:42:19.559Z,4.30
2018-08-27T08:44:21.780Z,2.73
2018-08-27T08:46:23.871Z,5.63
2018-08-27T08:48:25.949Z,2.73
2018-08-27T08:50:28.013Z,2.53
2018-08-27T08:52:30.184Z,4.93
2018-08-27T08:54:32.253Z,2.17
2018-08-27T08:56:34.361Z,2.20
2018-08-27T08:58:36.401Z,3.50
2018-08-27T09:00:38.429Z,2.83
2018-08-27T09:02:40.485Z,2.67
2018-08-27T09:04:42.523Z,4.40
2018-08-27T09:06:44.900Z,3.70
2018-08-27T09:08:46.943Z,4.10
2018-08-27T09:10:48.984Z,13.80
2018-08-27T09:12:51.071Z,12.93
2018-08-27T09:14:53.158Z,5.20
2018-08-27T09:16:55.271Z,3.90
2018-08-27T09:18:57.261Z,3.70
2018-08-27T09:20:59.307Z,4.00
2018-08-27T09:23:01.346Z,4.30
2018-08-27T09:25:03.412Z,4.30
2018-08-27T09:27:05.467Z,5.57
2018-08-27T09:29:07.494Z,5.50
2018-08-27T09:31:09.557Z,5.57
2018-08-27T09:33:11.653Z,3.53
2018-08-27T09:35:13.636Z,10.10
2018-08-27T09:37:15.673Z,5.13
2018-08-27T09:39:18.025Z,7.03
2018-08-27T09:41:20.104Z,6.50
2018-08-27T09:43:22.867Z,6.57
2018-08-27T09:45:24.959Z,5.73
2018-08-27T09:47:27.009Z,6.67
2018-08-27T09:49:29.139Z,5.43
2018-08-27T09:51:33.422Z,5.47
2018-08-27T09:53:36.236Z,6.03
2018-08-27T11:25:07.823Z,5.03
2018-08-27T11:27:09.901Z,4.23
2018-08-27T11:42:16.290Z,4.53
2018-08-27T11:44:18.359Z,7.27
2018-08-27T11:46:20.414Z,5.97
2018-08-27T11:48:22.466Z,5.70
2018-08-27T11:50:24.661Z,8.73
2018-08-27T11:52:26.573Z,7.33
2018-08-27T11:54:28.622Z,6.63
2018-08-27T11:56:30.737Z,5.30
2018-08-27T11:58:32.918Z,6.30
2018-08-27T12:00:40.686Z,6.80
2018-08-27T12:02:42.765Z,9.50
2018-08-27T12:04:44.837Z,9.87
2018-08-27T12:06:46.914Z,11.90
2018-08-27T12:08:48.988Z,21.53
2018-08-27T12:10:51.041Z,16.90
2018-08-27T12:12:53.133Z,18.40
2018-08-27T12:14:55.207Z,13.80
2018-08-27T12:16:57.303Z,13.60
2018-08-27T12:18:59.286Z,14.30
2018-08-27T12:21:01.385Z,19.20
2018-08-27T12:23:03.605Z,17.03
2018-08-27T12:25:05.732Z,11.30
2018-08-27T12:27:07.749Z,12.43
2018-08-27T12:29:09.789Z,18.80
2018-08-27T12:31:12.052Z,17.93
2018-08-27T12:33:14.106Z,18.60
2018-08-27T12:35:16.172Z,15.53
2018-08-27T12:37:18.204Z,20.00
2018-08-27T12:39:20.221Z,13.80
2018-08-27T12:41:22.303Z,14.87
2018-08-27T12:43:24.301Z,18.70
2018-08-27T12:45:26.360Z,16.23
2018-08-27T12:47:28.417Z,15.30
2018-08-27T12:49:30.498Z,12.47
2018-08-27T12:51:32.542Z,14.83
2018-08-27T12:53:34.576Z,13.60
2018-08-27T12:55:36.665Z,9.50
2018-08-27T12:57:38.698Z,12.80
2018-08-27T12:59:41.317Z,11.70
2018-08-27T13:01:43.388Z,9.70
2018-08-27T13:03:45.445Z,7.87
2018-08-27T13:05:47.523Z,9.30
2018-08-27T13:07:49.660Z,11.57
2018-08-27T13:09:51.621Z,8.10
2018-08-27T13:11:53.679Z,11.13
2018-08-27T13:13:55.753Z,9.80
2018-08-27T13:15:57.822Z,12.13
2018-08-27T13:17:59.913Z,12.87
2018-08-27T13:20:02.120Z,14.90
2018-08-27T13:22:04.341Z,11.80
2018-08-27T13:24:06.406Z,12.20
2018-08-27T13:26:08.470Z,14.30
2018-08-27T13:28:10.526Z,17.17
2018-08-27T13:30:12.608Z,13.30
2018-08-27T13:32:14.653Z,14.10
2018-08-27T13:34:17.217Z,21.07
2018-08-27T13:36:19.289Z,16.67
2018-08-27T13:38:21.348Z,15.10
2018-08-27T13:40:23.735Z,14.63
2018-08-27T13:42:25.873Z,13.00
2018-08-27T13:44:28.002Z,18.80
2018-08-27T13:46:30.157Z,15.80
2018-08-27T13:48:32.472Z,16.20
2018-08-27T13:50:34.569Z,15.20
2018-08-27T13:52:36.673Z,19.47
2018-08-27T13:54:38.824Z,15.10
2018-08-27T13:56:40.965Z,19.20
2018-08-27T13:58:42.997Z,15.40
2018-08-27T14:00:45.127Z,14.33
2018-08-27T14:02:47.285Z,12.37
2018-08-27T14:04:49.345Z,13.30
2018-08-27T14:06:51.412Z,15.93
2018-08-27T14:08:53.513Z,14.93
2018-08-27T14:10:55.621Z,14.67
2018-08-27T14:12:57.741Z,13.77
2018-08-27T14:14:59.857Z,15.67
2018-08-27T14:17:02.110Z,17.43
2018-08-27T14:19:04.332Z,14.90
2018-08-27T14:21:06.396Z,13.37
2018-08-27T14:23:08.561Z,15.30
2018-08-27T14:25:10.642Z,14.93
2018-08-27T14:27:12.756Z,13.40
2018-08-27T14:29:14.801Z,14.10
2018-08-27T14:31:16.877Z,14.37
2018-08-27T14:33:18.991Z,12.93
2018-08-27T14:35:21.020Z,12.20
2018-08-27T14:37:23.154Z,11.50
2018-08-27T14:39:25.245Z,18.20
2018-08-27T14:41:27.434Z,15.70
2018-08-27T14:43:29.537Z,20.40
2018-08-27T14:45:31.593Z,19.17
2018-08-27T14:47:33.661Z,11.70
2018-08-27T14:49:35.724Z,12.13
2018-08-27T14:51:37.824Z,19.27
2018-08-27T14:53:39.893Z,14.60
2018-08-27T14:55:41.963Z,16.07
2018-08-27T14:57:44.029Z,17.87
2018-08-27T14:59:46.087Z,39.40
2018-08-27T15:01:48.373Z,19.80
2018-08-27T15:03:50.447Z,19.43
2018-08-27T15:05:52.481Z,23.40
2018-08-27T15:07:54.585Z,21.83
2018-08-27T15:09:56.642Z,17.50
2018-08-27T15:11:58.706Z,16.70
2018-08-27T15:14:00.749Z,16.60
2018-08-27T15:16:02.812Z,19.90
2018-08-27T15:18:04.904Z,25.03
2018-08-27T15:20:07.361Z,21.53
2018-08-27T15:22:09.750Z,23.47
2018-08-27T15:24:11.860Z,23.40
2018-08-27T15:26:14.001Z,23.67
2018-08-27T15:28:16.086Z,22.40
2018-08-27T15:30:18.241Z,34.97
2018-08-27T15:32:20.380Z,26.33
2018-08-27T15:34:22.454Z,22.30
2018-08-27T15:36:24.502Z,19.03
2018-08-27T15:38:27.209Z,24.33
2018-08-27T15:40:29.231Z,18.60
2018-08-27T15:42:31.309Z,23.57
2018-08-27T15:44:33.405Z,28.80
2018-08-27T15:46:41.053Z,26.53
2018-08-27T15:48:43.105Z,19.80
2018-08-27T15:50:45.277Z,26.20
2018-08-27T15:52:47.209Z,20.80
2018-08-27T15:54:49.268Z,25.13
2018-08-27T15:56:51.309Z,21.20
2018-08-27T15:58:53.389Z,19.43
2018-08-27T16:00:55.438Z,22.17
2018-08-27T16:02:57.513Z,17.70
2018-08-27T16:04:59.541Z,19.13
2018-08-27T16:07:01.650Z,20.27
2018-08-27T16:09:04.261Z,19.70
2018-08-27T16:11:06.357Z,19.20
2018-08-27T16:13:08.446Z,24.57
2018-08-27T16:15:10.486Z,18.33
2018-08-27T16:17:12.588Z,20.83
2018-08-27T16:19:14.653Z,21.07
2018-08-27T16:21:16.729Z,20.50
2018-08-27T16:23:18.830Z,17.10
2018-08-27T16:25:20.886Z,17.40
2018-08-27T16:27:22.978Z,21.13
2018-08-27T16:29:25.049Z,16.10
2018-08-27T16:31:27.116Z,20.83
2018-08-27T16:33:29.145Z,16.77
2018-08-27T16:35:31.163Z,26.80
2018-08-27T16:37:33.221Z,19.43
2018-08-27T16:39:35.297Z,15.70
2018-08-27T16:41:37.801Z,16.90
2018-08-27T16:43:39.835Z,18.77
2018-08-27T16:45:41.885Z,20.87
2018-08-27T16:47:43.914Z,17.30
2018-08-27T16:49:45.977Z,16.40
2018-08-27T16:51:48.037Z,19.90
2018-08-27T16:53:50.091Z,13.77
2018-08-27T16:55:52.161Z,19.13
2018-08-27T16:57:54.200Z,12.53
2018-08-27T16:59:56.289Z,16.73
2018-08-27T17:01:58.420Z,15.73
2018-08-27T17:04:00.515Z,16.83
2018-08-27T17:06:02.601Z,11.40
2018-08-27T17:08:04.669Z,18.50
2018-08-27T17:10:06.764Z,14.57
2018-08-27T17:12:08.809Z,15.03
2018-08-27T17:14:10.869Z,18.90
2018-08-27T17:16:12.967Z,15.07
2018-08-27T17:18:15.035Z,11.50
2018-08-27T17:20:17.091Z,19.83
2018-08-27T17:22:19.225Z,15.17
2018-08-27T17:24:21.330Z,14.93
2018-08-27T17:26:23.423Z,12.03
2018-08-27T17:28:25.483Z,15.93
2018-08-27T17:30:27.537Z,18.63
2018-08-27T17:32:29.669Z,14.83
2018-08-27T17:34:31.839Z,11.60
2018-08-27T17:36:33.951Z,16.27
2018-08-27T17:38:36.060Z,16.87
2018-08-27T17:40:38.134Z,13.67
2018-08-27T17:42:40.256Z,14.93
2018-08-27T17:44:42.336Z,13.90
2018-08-27T17:46:44.436Z,9.67
2018-08-27T17:48:46.965Z,15.70
2018-08-27T17:50:49.045Z,16.93
2018-08-27T17:52:51.099Z,15.03
2018-08-27T17:54:53.202Z,11.27
2018-08-27T17:56:55.245Z,33.10
2018-08-27T17:58:57.305Z,19.83
2018-08-27T18:00:59.342Z,13.70
2018-08-27T18:03:01.510Z,16.30
2018-08-27T18:05:03.952Z,15.80
2018-08-27T18:07:05.937Z,21.30
2018-08-27T18:09:07.993Z,15.83
2018-08-27T18:11:10.095Z,15.97
2018-08-27T18:13:12.176Z,19.83
2018-08-27T18:15:14.245Z,13.13
2018-08-27T18:17:16.305Z,15.77
2018-08-27T18:19:18.357Z,21.33
2018-08-27T18:21:20.433Z,18.50
2018-08-27T18:23:22.458Z,18.93
2018-08-27T18:25:24.497Z,12.67
2018-08-27T18:27:26.561Z,17.27
2018-08-27T18:29:28.648Z,14.50
2018-08-27T18:31:30.694Z,16.33
2018-08-27T18:33:32.761Z,19.07
2018-08-27T18:35:34.834Z,15.40
2018-08-27T18:37:36.880Z,16.00
2018-08-27T18:39:38.978Z,12.93
2018-08-27T18:41:41.130Z,29.87
2018-08-27T18:43:43.197Z,16.10
2018-08-27T18:45:45.241Z,17.23
2018-08-27T18:47:47.349Z,13.17
2018-08-27T18:49:49.465Z,24.83
2018-08-27T18:51:51.686Z,22.23
2018-08-27T18:53:54.221Z,21.03
2018-08-27T18:55:57.034Z,24.80
2018-08-27T18:57:59.378Z,25.20
2018-08-27T19:00:01.659Z,18.60
2018-08-27T19:02:04.325Z,20.07
2018-08-27T19:04:07.679Z,20.37
2018-08-27T19:06:10.025Z,18.07
2018-08-27T19:08:12.248Z,23.73
2018-08-27T19:10:15.074Z,19.83
2018-08-27T19:12:17.301Z,25.93
2018-08-27T19:14:19.962Z,21.43
2018-08-27T19:16:22.767Z,20.83
2018-08-27T19:18:25.025Z,18.10
2018-08-27T19:20:27.467Z,23.47
2018-08-27T19:22:29.692Z,22.73
2018-08-27T19:24:32.097Z,30.50
2018-08-27T19:26:36.674Z,28.80
2018-08-27T19:28:39.016Z,21.47
2018-08-27T19:30:41.470Z,22.53
2018-08-27T19:32:43.683Z,24.23
2018-08-27T19:34:46.117Z,21.00
2018-08-27T19:36:48.351Z,21.90
2018-08-27T19:38:51.485Z,24.53
2018-08-27T19:40:53.982Z,25.13
2018-08-27T19:42:56.129Z,25.03
2018-08-27T19:44:58.214Z,23.87
2018-08-27T19:47:00.306Z,21.43
2018-08-27T19:49:02.595Z,14.50
2018-08-27T19:51:04.845Z,21.90
2018-08-27T19:53:08.150Z,21.30
2018-08-27T19:55:10.274Z,21.73
2018-08-27T19:57:12.486Z,27.40
2018-08-27T19:59:14.655Z,25.13
2018-08-27T20:01:17.342Z,19.13
2018-08-27T20:03:20.694Z,19.70
2018-08-27T20:05:22.829Z,24.10
2018-08-27T20:07:25.034Z,23.27
2018-08-27T20:09:27.169Z,22.20
2018-08-27T20:11:30.408Z,20.33
2018-08-27T20:13:32.644Z,22.97
2018-08-27T20:15:34.954Z,15.10
2018-08-27T20:17:37.289Z,17.53
2018-08-27T20:19:39.425Z,17.80
2018-08-27T20:21:41.866Z,23.27
2018-08-27T20:23:44.150Z,18.10
2018-08-27T20:25:46.449Z,25.27
2018-08-27T20:27:48.670Z,19.30
2018-08-27T20:29:50.995Z,20.23
2018-08-27T20:31:53.125Z,23.67
2018-08-27T20:33:55.419Z,17.83
2018-08-27T20:35:57.567Z,21.73
2018-08-27T20:37:59.637Z,23.00
2018-08-27T20:40:01.713Z,19.17
2018-08-27T20:42:03.787Z,20.37
2018-08-27T20:44:05.957Z,18.50
2018-08-27T20:46:08.078Z,17.27
2018-08-27T20:48:10.160Z,13.80
2018-08-27T20:50:12.217Z,22.87
2018-08-27T20:52:14.280Z,20.00
2018-08-27T20:54:16.305Z,24.53
2018-08-27T20:56:18.358Z,19.50
2018-08-27T20:58:21.465Z,19.57
2018-08-27T21:00:23.497Z,18.03
2018-08-27T21:02:25.554Z,13.10
2018-08-27T21:04:27.616Z,16.97
2018-08-27T21:06:29.674Z,14.60
2018-08-27T21:08:31.759Z,15.77
2018-08-27T21:10:33.829Z,14.93
2018-08-27T21:12:35.881Z,16.57
2018-08-27T21:14:40.489Z,16.77
2018-08-27T21:16:42.574Z,18.30
2018-08-27T21:18:44.645Z,14.80
2018-08-27T21:20:46.689Z,24.73
2018-08-27T21:22:48.786Z,16.33
2018-08-27T21:24:51.507Z,18.17
2018-08-27T21:26:53.773Z,20.17
2018-08-27T21:28:55.853Z,13.77
2018-08-27T21:30:57.905Z,15.13
2018-08-27T21:32:59.960Z,16.90
2018-08-27T21:35:02.013Z,16.17
2018-08-27T21:37:04.093Z,15.10
2018-08-27T21:39:06.181Z,21.20
2018-08-27T21:41:08.331Z,21.37
2018-08-27T21:43:10.441Z,20.57
2018-08-27T21:45:12.499Z,20.70
2018-08-27T21:47:14.586Z,16.50
2018-08-27T21:49:16.669Z,17.10
2018-08-27T21:51:18.717Z,16.90
2018-08-27T21:53:20.754Z,20.50
2018-08-27T21:55:22.789Z,23.23
2018-08-27T21:57:24.844Z,18.00
2018-08-27T21:59:26.914Z,18.10
2018-08-27T22:01:28.990Z,18.20
2018-08-27T22:03:36.711Z,18.47
2018-08-27T22:05:38.896Z,22.53
2018-08-27T22:07:40.966Z,17.93
2018-08-27T22:09:43.031Z,22.00
2018-08-27T22:11:45.081Z,22.50
2018-08-27T22:13:47.173Z,23.33
2018-08-27T22:15:49.242Z,18.93
2018-08-27T22:17:51.276Z,20.13
2018-08-27T22:19:53.329Z,16.60
2018-08-27T22:21:55.380Z,20.90
2018-08-27T22:23:57.461Z,30.10
2018-08-27T22:25:59.566Z,19.43
2018-08-27T22:28:01.671Z,15.30
2018-08-27T22:30:04.211Z,26.03
2018-08-27T22:32:06.327Z,22.83
2018-08-27T22:34:08.410Z,19.50
2018-08-27T22:36:10.518Z,17.43
2018-08-27T22:38:12.594Z,18.03
2018-08-27T22:40:14.644Z,23.20
2018-08-27T22:42:16.677Z,16.40
2018-08-27T22:44:18.757Z,17.83
2018-08-27T22:46:20.828Z,20.63
2018-08-27T22:48:22.881Z,19.83
2018-08-27T22:50:24.935Z,19.17
2018-08-27T22:52:27.003Z,19.07
2018-08-27T22:54:29.049Z,23.70
2018-08-27T22:56:31.127Z,20.17
2018-08-27T22:58:33.173Z,18.20
2018-08-27T23:00:35.201Z,18.53
2018-08-27T23:02:43.154Z,16.63
2018-08-27T23:04:50.862Z,16.13
2018-08-27T23:06:52.923Z,25.90
2018-08-27T23:08:54.977Z,23.50
2018-08-27T23:10:57.037Z,19.53
2018-08-27T23:12:59.097Z,15.23
2018-08-27T23:15:01.154Z,16.63
2018-08-27T23:17:03.236Z,14.83
2018-08-27T23:19:05.304Z,15.20
2018-08-27T23:21:07.383Z,16.07
2018-08-27T23:23:09.437Z,25.20
2018-08-27T23:25:11.505Z,16.60
2018-08-27T23:27:13.538Z,16.20
2018-08-27T23:29:15.600Z,16.23
2018-08-27T23:31:17.641Z,20.57
2018-08-27T23:33:19.704Z,19.60
2018-08-27T23:35:21.758Z,18.47
2018-08-27T23:37:24.012Z,26.83
2018-08-27T23:39:26.073Z,15.20
2018-08-27T23:41:28.128Z,18.80
2018-08-27T23:43:30.190Z,15.53
